• Join FlightAware (Why Join?)
  • Login
  • US Flag 
07:11PM EDT


 

Airport Tracker/Info


-or-


 

Live Flight TrackerFlight Track Log ✈ BER6298 ✈ 17-Apr-2013 ✈ EDDM / MUC - EDDH / HAM

Flight Track Log - Related Links

Times and Time Zones

All times are in EDT time to prevent confusion due to time zone crossing. See the BER6298 flight status page for this flight to view local times or setup timezone preferences in your user account.

Time Position Orientation Groundspeed Altitude Reporting Facility
EDT Latitude Longitude Course Direction KTS MPH feet Rate Location/Type
02:47AM 50.0549 11.2511 349° North  Level Estimated
02:48AM 50.1443 11.2219 348° North  Level Estimated
02:49AM 50.2338 11.1925 348° North  Level Estimated
02:50AM 50.3232 11.1631 348° North  Level Estimated
02:51AM 50.4127 11.1336 348° North  Level Estimated
02:52AM 50.5021 11.1039 348° North  Level Estimated
02:53AM 50.5915 11.0742 348° North  Level Estimated
02:54AM 50.6810 11.0443 348° North  Level Estimated
02:55AM 50.7704 11.0143 348° North  Level Estimated
02:56AM 50.8598 10.9842 348° North  Level Estimated
02:57AM 50.9492 10.9540 348° North  Level Estimated
02:58AM 51.0386 10.9237 348° North  Level Estimated
02:59AM 51.1279 10.8932 348° North  Level Estimated
03:00AM 51.2173 10.8627 348° North  Level Estimated
03:01AM 51.3067 10.8320 348° North  Level Estimated
03:02AM 51.3960 10.8012 348° North  Level Estimated
03:03AM 51.4854 10.7702 348° North  Level Estimated
03:04AM 51.5747 10.7392 348° North  Level Estimated
03:05AM 51.6640 10.7080 348° North  Level Estimated
03:06AM 51.7533 10.6767 348° North  Level Estimated
03:07AM 51.8427 10.6453 348° North  Level Estimated
03:08AM 51.9320 10.6138 348° North  Level Estimated
03:09AM 52.0213 10.5821 348° North  Level Estimated
03:10AM 52.1105 10.5503 348° North  Level Estimated
03:11AM 52.1998 10.5184 348° North  Level Estimated
03:12AM 52.2891 10.4863 348° North  Level Estimated
03:13AM 52.3784 10.4542 348° North  Level Estimated
03:14AM 52.4676 10.4218 348° North  Level Estimated
03:15AM 52.5569 10.3894 348° North  Level Estimated
03:16AM 52.6461 10.3568 348° North  Level Estimated
03:17AM 52.7353 10.3241 347° North  Level Estimated
03:18AM 52.8245 10.2913 347° North  Level Estimated
03:19AM 52.9137 10.2583 347° North  Level Estimated
03:20AM 53.0029 10.2252 347° North  Level Estimated
03:21AM 53.0921 10.1919 347° North  Level Estimated
03:22AM 53.1813 10.1586 347° North  Level Estimated
03:23AM 53.2705 10.1250 347° North  Level Estimated
03:24AM 53.3596 10.0913 347° North  Level Estimated
03:25AM 53.4488 10.0575 347° North  Level Estimated
03:26AM 53.5379 10.0236 347° North  Level Estimated
03:27AM 53.6271 9.9895 347° North  Level Estimated
03:28AM 53.6304 9.9882 347° North  Level Estimated
03:29AM 53.6304 9.9882 230° Southwest  Level Estimated
03:30AM 53.6304 9.9882 230° Southwest  Level Estimated
03:31AM 53.6304 9.9882 230° Southwest  Level Estimated
03:32AM 53.6304 9.9882 230° Southwest  Level Estimated
03:33AM 53.6304 9.9882 230° Southwest  Level Estimated
03:34AM 53.6304 9.9882 230° Southwest  Level Estimated
03:35AM 53.6304 9.9882 230° Southwest  Level Estimated
03:36AM 53.6304 9.9882 230° Southwest  Level Estimated
03:37AM 53.6304 9.9882 230° Southwest  Level Estimated
03:38AM 53.6304 9.9882 230° Southwest  Level Estimated
03:39AM 53.6304 9.9882 230° Southwest  Level Estimated
03:40AM 53.6304 9.9882 230° Southwest  Level Estimated
03:41AM 53.6304 9.9882 230° Southwest  Level Estimated
03:42AM 53.6304 9.9882 230° Southwest  Level Estimated
03:43AM 53.6304 9.9882 230° Southwest  Level Estimated